sensor_id;sensor_type;location;lat;lon;timestamp;P1;durP1;ratioP1;P2;durP2;ratioP2
24373;SDS011;12498;50.880;12.096;2022-08-11T00:01:21;10.02;;;4.25;;
24373;SDS011;12498;50.880;12.096;2022-08-11T00:03:51;8.30;;;4.35;;
24373;SDS011;12498;50.880;12.096;2022-08-11T00:06:24;12.40;;;4.43;;
24373;SDS011;12498;50.880;12.096;2022-08-11T00:08:54;8.32;;;4.40;;
24373;SDS011;12498;50.880;12.096;2022-08-11T00:11:21;8.65;;;4.25;;
24373;SDS011;12498;50.880;12.096;2022-08-11T00:14:00;7.53;;;4.20;;
24373;SDS011;12498;50.880;12.096;2022-08-11T00:16:27;11.38;;;4.50;;
24373;SDS011;12498;50.880;12.096;2022-08-11T00:18:54;10.38;;;4.57;;
24373;SDS011;12498;50.880;12.096;2022-08-11T00:21:21;9.13;;;4.78;;
24373;SDS011;12498;50.880;12.096;2022-08-11T00:23:56;8.75;;;4.60;;
24373;SDS011;12498;50.880;12.096;2022-08-11T00:26:26;10.18;;;4.80;;
24373;SDS011;12498;50.880;12.096;2022-08-11T00:28:54;9.52;;;4.50;;
24373;SDS011;12498;50.880;12.096;2022-08-11T00:33:54;10.38;;;4.68;;
24373;SDS011;12498;50.880;12.096;2022-08-11T00:36:22;8.15;;;4.72;;
24373;SDS011;12498;50.880;12.096;2022-08-11T00:38:53;8.68;;;4.35;;
24373;SDS011;12498;50.880;12.096;2022-08-11T00:47:34;8.82;;;4.82;;
24373;SDS011;12498;50.880;12.096;2022-08-11T01:01:19;7.75;;;5.20;;
24373;SDS011;12498;50.880;12.096;2022-08-11T01:10:06;8.43;;;4.88;;
24373;SDS011;12498;50.880;12.096;2022-08-11T01:30:16;8.80;;;5.55;;
24373;SDS011;12498;50.880;12.096;2022-08-11T01:33:22;12.32;;;5.38;;
24373;SDS011;12498;50.880;12.096;2022-08-11T01:56:25;12.02;;;5.68;;
24373;SDS011;12498;50.880;12.096;2022-08-11T01:59:02;10.98;;;6.00;;
24373;SDS011;12498;50.880;12.096;2022-08-11T02:13:24;14.60;;;5.80;;
24373;SDS011;12498;50.880;12.096;2022-08-11T02:19:17;14.48;;;6.03;;
24373;SDS011;12498;50.880;12.096;2022-08-11T02:25:19;17.50;;;6.60;;
24373;SDS011;12498;50.880;12.096;2022-08-11T02:28:00;18.65;;;7.18;;
24373;SDS011;12498;50.880;12.096;2022-08-11T02:30:34;14.00;;;6.80;;
24373;SDS011;12498;50.880;12.096;2022-08-11T02:33:12;12.30;;;6.90;;
24373;SDS011;12498;50.880;12.096;2022-08-11T02:36:04;17.20;;;7.03;;
24373;SDS011;12498;50.880;12.096;2022-08-11T02:39:10;13.13;;;6.93;;
24373;SDS011;12498;50.880;12.096;2022-08-11T02:44:59;15.88;;;7.05;;
24373;SDS011;12498;50.880;12.096;2022-08-11T02:52:39;16.80;;;7.07;;
24373;SDS011;12498;50.880;12.096;2022-08-11T02:55:28;12.75;;;6.80;;
24373;SDS011;12498;50.880;12.096;2022-08-11T02:58:15;15.05;;;7.50;;
24373;SDS011;12498;50.880;12.096;2022-08-11T03:03:52;20.25;;;7.07;;
24373;SDS011;12498;50.880;12.096;2022-08-11T03:06:36;12.63;;;7.03;;
24373;SDS011;12498;50.880;12.096;2022-08-11T03:09:18;17.15;;;7.30;;
24373;SDS011;12498;50.880;12.096;2022-08-11T03:12:10;15.02;;;7.22;;
24373;SDS011;12498;50.880;12.096;2022-08-11T03:15:06;16.70;;;6.70;;
24373;SDS011;12498;50.880;12.096;2022-08-11T03:32:10;14.02;;;7.95;;
24373;SDS011;12498;50.880;12.096;2022-08-11T03:34:56;12.75;;;7.60;;
24373;SDS011;12498;50.880;12.096;2022-08-11T03:37:34;13.30;;;7.40;;
24373;SDS011;12498;50.880;12.096;2022-08-11T03:46:09;16.27;;;7.05;;
24373;SDS011;12498;50.880;12.096;2022-08-11T03:49:19;15.18;;;7.10;;
24373;SDS011;12498;50.880;12.096;2022-08-11T03:51:55;19.90;;;7.18;;
24373;SDS011;12498;50.880;12.096;2022-08-11T04:03:51;18.27;;;7.90;;
24373;SDS011;12498;50.880;12.096;2022-08-11T04:06:30;15.60;;;8.02;;
24373;SDS011;12498;50.880;12.096;2022-08-11T04:58:08;14.82;;;8.18;;
24373;SDS011;12498;50.880;12.096;2022-08-11T05:15:47;19.83;;;8.82;;
24373;SDS011;12498;50.880;12.096;2022-08-11T05:18:34;17.15;;;8.27;;
24373;SDS011;12498;50.880;12.096;2022-08-11T05:21:40;13.45;;;7.93;;
24373;SDS011;12498;50.880;12.096;2022-08-11T05:27:37;20.48;;;8.20;;
24373;SDS011;12498;50.880;12.096;2022-08-11T05:30:27;10.55;;;7.43;;
24373;SDS011;12498;50.880;12.096;2022-08-11T05:33:16;18.10;;;8.13;;
24373;SDS011;12498;50.880;12.096;2022-08-11T05:37:07;18.45;;;8.65;;
24373;SDS011;12498;50.880;12.096;2022-08-11T05:39:25;29.65;;;13.40;;
24373;SDS011;12498;50.880;12.096;2022-08-11T05:42:14;19.30;;;9.52;;
24373;SDS011;12498;50.880;12.096;2022-08-11T05:45:04;13.63;;;8.13;;
24373;SDS011;12498;50.880;12.096;2022-08-11T05:47:55;12.73;;;7.78;;
24373;SDS011;12498;50.880;12.096;2022-08-11T05:50:40;21.45;;;9.75;;
24373;SDS011;12498;50.880;12.096;2022-08-11T05:53:32;21.52;;;10.40;;
24373;SDS011;12498;50.880;12.096;2022-08-11T05:56:17;30.50;;;15.52;;
24373;SDS011;12498;50.880;12.096;2022-08-11T05:58:48;20.45;;;10.77;;
24373;SDS011;12498;50.880;12.096;2022-08-11T06:01:22;16.27;;;8.82;;
24373;SDS011;12498;50.880;12.096;2022-08-11T06:03:52;16.92;;;7.53;;
24373;SDS011;12498;50.880;12.096;2022-08-11T06:06:39;17.17;;;7.47;;
24373;SDS011;12498;50.880;12.096;2022-08-11T06:09:15;15.20;;;8.45;;
24373;SDS011;12498;50.880;12.096;2022-08-11T06:11:47;11.25;;;7.32;;
24373;SDS011;12498;50.880;12.096;2022-08-11T06:14:14;12.20;;;7.50;;
24373;SDS011;12498;50.880;12.096;2022-08-11T06:16:40;30.80;;;19.08;;
24373;SDS011;12498;50.880;12.096;2022-08-11T06:19:06;60.63;;;36.83;;
24373;SDS011;12498;50.880;12.096;2022-08-11T06:21:33;59.88;;;36.42;;
24373;SDS011;12498;50.880;12.096;2022-08-11T06:24:02;106.88;;;64.68;;
24373;SDS011;12498;50.880;12.096;2022-08-11T06:26:35;88.25;;;53.83;;
24373;SDS011;12498;50.880;12.096;2022-08-11T06:29:01;43.30;;;24.02;;
24373;SDS011;12498;50.880;12.096;2022-08-11T06:31:29;46.92;;;31.50;;
24373;SDS011;12498;50.880;12.096;2022-08-11T06:33:59;195.10;;;115.68;;
24373;SDS011;12498;50.880;12.096;2022-08-11T06:39:21;119.20;;;70.50;;
24373;SDS011;12498;50.880;12.096;2022-08-11T06:42:31;43.78;;;24.40;;
24373;SDS011;12498;50.880;12.096;2022-08-11T06:44:41;50.55;;;26.98;;
24373;SDS011;12498;50.880;12.096;2022-08-11T06:47:13;75.43;;;40.70;;
24373;SDS011;12498;50.880;12.096;2022-08-11T06:49:42;77.57;;;40.97;;
24373;SDS011;12498;50.880;12.096;2022-08-11T06:52:37;151.15;;;82.10;;
24373;SDS011;12498;50.880;12.096;2022-08-11T06:55:10;93.05;;;46.10;;
24373;SDS011;12498;50.880;12.096;2022-08-11T06:58:12;92.85;;;51.10;;
24373;SDS011;12498;50.880;12.096;2022-08-11T07:01:06;88.80;;;45.92;;
24373;SDS011;12498;50.880;12.096;2022-08-11T07:03:36;36.13;;;19.63;;
24373;SDS011;12498;50.880;12.096;2022-08-11T07:06:19;22.02;;;12.38;;
24373;SDS011;12498;50.880;12.096;2022-08-11T07:09:44;55.88;;;28.98;;
24373;SDS011;12498;50.880;12.096;2022-08-11T07:12:54;43.47;;;21.30;;
24373;SDS011;12498;50.880;12.096;2022-08-11T07:15:41;81.28;;;39.08;;
24373;SDS011;12498;50.880;12.096;2022-08-11T07:18:09;274.30;;;127.32;;
24373;SDS011;12498;50.880;12.096;2022-08-11T07:21:06;130.95;;;63.78;;
24373;SDS011;12498;50.880;12.096;2022-08-11T07:24:08;125.82;;;58.88;;
24373;SDS011;12498;50.880;12.096;2022-08-11T07:26:57;195.23;;;92.07;;
24373;SDS011;12498;50.880;12.096;2022-08-11T07:29:44;45.28;;;21.60;;
24373;SDS011;12498;50.880;12.096;2022-08-11T07:32:14;176.75;;;84.15;;
24373;SDS011;12498;50.880;12.096;2022-08-11T07:34:49;33.08;;;15.68;;
24373;SDS011;12498;50.880;12.096;2022-08-11T07:37:19;24.75;;;12.85;;
24373;SDS011;12498;50.880;12.096;2022-08-11T07:39:52;63.60;;;28.95;;
24373;SDS011;12498;50.880;12.096;2022-08-11T07:42:21;41.65;;;19.35;;
24373;SDS011;12498;50.880;12.096;2022-08-11T07:44:51;289.27;;;136.48;;
24373;SDS011;12498;50.880;12.096;2022-08-11T07:47:38;96.00;;;46.30;;
24373;SDS011;12498;50.880;12.096;2022-08-11T07:50:22;15.02;;;9.00;;
24373;SDS011;12498;50.880;12.096;2022-08-11T07:53:07;16.00;;;8.13;;
24373;SDS011;12498;50.880;12.096;2022-08-11T07:55:34;17.02;;;8.98;;
24373;SDS011;12498;50.880;12.096;2022-08-11T07:58:00;12.63;;;6.68;;
24373;SDS011;12498;50.880;12.096;2022-08-11T08:03:48;20.42;;;7.78;;
24373;SDS011;12498;50.880;12.096;2022-08-11T08:06:33;120.60;;;55.00;;
24373;SDS011;12498;50.880;12.096;2022-08-11T08:09:19;16.65;;;7.95;;
24373;SDS011;12498;50.880;12.096;2022-08-11T08:12:05;36.38;;;17.50;;
24373;SDS011;12498;50.880;12.096;2022-08-11T08:14:51;229.65;;;105.22;;
24373;SDS011;12498;50.880;12.096;2022-08-11T08:17:37;118.15;;;55.78;;
24373;SDS011;12498;50.880;12.096;2022-08-11T08:20:19;233.63;;;114.72;;
24373;SDS011;12498;50.880;12.096;2022-08-11T08:22:50;105.40;;;51.70;;
24373;SDS011;12498;50.880;12.096;2022-08-11T08:25:21;40.40;;;19.63;;
24373;SDS011;12498;50.880;12.096;2022-08-11T08:27:48;28.60;;;13.15;;
24373;SDS011;12498;50.880;12.096;2022-08-11T08:30:15;14.57;;;5.40;;
24373;SDS011;12498;50.880;12.096;2022-08-11T08:33:08;16.20;;;5.97;;
24373;SDS011;12498;50.880;12.096;2022-08-11T08:35:35;11.70;;;4.80;;
24373;SDS011;12498;50.880;12.096;2022-08-11T08:38:01;12.27;;;3.53;;
24373;SDS011;12498;50.880;12.096;2022-08-11T08:40:27;9.30;;;4.00;;
24373;SDS011;12498;50.880;12.096;2022-08-11T08:43:00;14.60;;;4.72;;
24373;SDS011;12498;50.880;12.096;2022-08-11T08:45:32;10.77;;;4.20;;
24373;SDS011;12498;50.880;12.096;2022-08-11T08:48:01;10.50;;;4.23;;
24373;SDS011;12498;50.880;12.096;2022-08-11T08:50:30;15.40;;;6.22;;
24373;SDS011;12498;50.880;12.096;2022-08-11T08:53:22;8.35;;;3.22;;
24373;SDS011;12498;50.880;12.096;2022-08-11T08:55:53;6.68;;;3.10;;
24373;SDS011;12498;50.880;12.096;2022-08-11T08:58:22;10.10;;;3.40;;
24373;SDS011;12498;50.880;12.096;2022-08-11T09:00:49;11.27;;;3.88;;
24373;SDS011;12498;50.880;12.096;2022-08-11T09:03:16;11.52;;;4.70;;
24373;SDS011;12498;50.880;12.096;2022-08-11T09:05:43;13.32;;;3.80;;
24373;SDS011;12498;50.880;12.096;2022-08-11T09:08:10;9.55;;;3.40;;
24373;SDS011;12498;50.880;12.096;2022-08-11T09:10:36;10.27;;;3.45;;
24373;SDS011;12498;50.880;12.096;2022-08-11T09:13:03;8.43;;;2.70;;
24373;SDS011;12498;50.880;12.096;2022-08-11T09:15:30;10.38;;;2.78;;
24373;SDS011;12498;50.880;12.096;2022-08-11T09:17:58;14.70;;;3.20;;
24373;SDS011;12498;50.880;12.096;2022-08-11T09:20:33;16.38;;;3.00;;
24373;SDS011;12498;50.880;12.096;2022-08-11T09:23:04;12.00;;;3.28;;
24373;SDS011;12498;50.880;12.096;2022-08-11T09:25:58;10.30;;;3.08;;
24373;SDS011;12498;50.880;12.096;2022-08-11T09:28:44;7.53;;;3.17;;
24373;SDS011;12498;50.880;12.096;2022-08-11T09:31:11;8.35;;;3.08;;
24373;SDS011;12498;50.880;12.096;2022-08-11T09:33:38;8.57;;;2.85;;
24373;SDS011;12498;50.880;12.096;2022-08-11T09:36:07;11.18;;;3.22;;
24373;SDS011;12498;50.880;12.096;2022-08-11T09:38:52;9.55;;;3.70;;
24373;SDS011;12498;50.880;12.096;2022-08-11T09:41:37;10.30;;;3.33;;
24373;SDS011;12498;50.880;12.096;2022-08-11T09:44:06;8.50;;;2.63;;
24373;SDS011;12498;50.880;12.096;2022-08-11T09:46:52;12.65;;;2.65;;
24373;SDS011;12498;50.880;12.096;2022-08-11T09:49:23;7.10;;;3.00;;
24373;SDS011;12498;50.880;12.096;2022-08-11T09:51:49;11.50;;;3.70;;
24373;SDS011;12498;50.880;12.096;2022-08-11T09:54:17;8.90;;;2.88;;
24373;SDS011;12498;50.880;12.096;2022-08-11T09:56:43;10.60;;;2.42;;
24373;SDS011;12498;50.880;12.096;2022-08-11T09:59:28;8.07;;;2.72;;
24373;SDS011;12498;50.880;12.096;2022-08-11T10:01:57;10.82;;;2.50;;
24373;SDS011;12498;50.880;12.096;2022-08-11T10:04:36;8.63;;;2.40;;
24373;SDS011;12498;50.880;12.096;2022-08-11T10:07:13;12.38;;;2.72;;
24373;SDS011;12498;50.880;12.096;2022-08-11T10:12:25;9.98;;;2.58;;
24373;SDS011;12498;50.880;12.096;2022-08-11T10:15:13;9.50;;;2.42;;
24373;SDS011;12498;50.880;12.096;2022-08-11T10:21:13;9.95;;;2.70;;
24373;SDS011;12498;50.880;12.096;2022-08-11T10:23:47;11.25;;;2.88;;
24373;SDS011;12498;50.880;12.096;2022-08-11T10:26:31;9.98;;;2.45;;
24373;SDS011;12498;50.880;12.096;2022-08-11T10:29:30;8.38;;;2.60;;
24373;SDS011;12498;50.880;12.096;2022-08-11T10:32:20;4.47;;;2.10;;
24373;SDS011;12498;50.880;12.096;2022-08-11T10:37:52;9.15;;;2.40;;
24373;SDS011;12498;50.880;12.096;2022-08-11T10:40:19;7.47;;;2.10;;
24373;SDS011;12498;50.880;12.096;2022-08-11T10:42:46;4.53;;;2.20;;
24373;SDS011;12498;50.880;12.096;2022-08-11T10:45:34;11.85;;;2.13;;
24373;SDS011;12498;50.880;12.096;2022-08-11T10:48:20;7.90;;;2.40;;
24373;SDS011;12498;50.880;12.096;2022-08-11T10:50:48;7.65;;;2.38;;
24373;SDS011;12498;50.880;12.096;2022-08-11T10:53:34;8.18;;;2.00;;
24373;SDS011;12498;50.880;12.096;2022-08-11T10:56:20;13.05;;;3.10;;
24373;SDS011;12498;50.880;12.096;2022-08-11T10:59:05;8.93;;;2.38;;
24373;SDS011;12498;50.880;12.096;2022-08-11T11:01:33;15.50;;;2.87;;
24373;SDS011;12498;50.880;12.096;2022-08-11T11:04:04;7.70;;;2.08;;
24373;SDS011;12498;50.880;12.096;2022-08-11T11:09:29;5.13;;;1.90;;
24373;SDS011;12498;50.880;12.096;2022-08-11T11:12:08;8.18;;;2.00;;
24373;SDS011;12498;50.880;12.096;2022-08-11T11:15:07;14.45;;;2.60;;
24373;SDS011;12498;50.880;12.096;2022-08-11T11:18:03;5.07;;;1.88;;
24373;SDS011;12498;50.880;12.096;2022-08-11T11:31:58;7.18;;;2.17;;
24373;SDS011;12498;50.880;12.096;2022-08-11T11:37:11;6.43;;;2.00;;
24373;SDS011;12498;50.880;12.096;2022-08-11T11:39:41;5.22;;;2.10;;
24373;SDS011;12498;50.880;12.096;2022-08-11T11:42:08;8.50;;;2.00;;
24373;SDS011;12498;50.880;12.096;2022-08-11T11:44:36;10.30;;;1.80;;
24373;SDS011;12498;50.880;12.096;2022-08-11T11:47:03;7.68;;;2.20;;
24373;SDS011;12498;50.880;12.096;2022-08-11T11:49:30;8.52;;;2.20;;
24373;SDS011;12498;50.880;12.096;2022-08-11T11:51:57;12.70;;;2.47;;
24373;SDS011;12498;50.880;12.096;2022-08-11T11:54:24;8.35;;;2.83;;
24373;SDS011;12498;50.880;12.096;2022-08-11T11:56:52;9.25;;;3.28;;
24373;SDS011;12498;50.880;12.096;2022-08-11T11:59:20;9.43;;;3.20;;
24373;SDS011;12498;50.880;12.096;2022-08-11T12:02:10;10.55;;;2.83;;
24373;SDS011;12498;50.880;12.096;2022-08-11T12:04:39;11.50;;;3.10;;
24373;SDS011;12498;50.880;12.096;2022-08-11T12:07:06;4.75;;;2.33;;
24373;SDS011;12498;50.880;12.096;2022-08-11T12:09:52;6.07;;;2.38;;
24373;SDS011;12498;50.880;12.096;2022-08-11T12:12:19;8.63;;;2.38;;
24373;SDS011;12498;50.880;12.096;2022-08-11T12:15:05;7.18;;;2.25;;
24373;SDS011;12498;50.880;12.096;2022-08-11T12:17:31;11.57;;;2.07;;
24373;SDS011;12498;50.880;12.096;2022-08-11T12:19:59;6.93;;;2.05;;
24373;SDS011;12498;50.880;12.096;2022-08-11T12:22:25;8.73;;;2.05;;
24373;SDS011;12498;50.880;12.096;2022-08-11T12:25:10;9.65;;;2.42;;
24373;SDS011;12498;50.880;12.096;2022-08-11T12:27:54;7.93;;;2.03;;
24373;SDS011;12498;50.880;12.096;2022-08-11T12:30:20;7.25;;;4.35;;
24373;SDS011;12498;50.880;12.096;2022-08-11T12:32:47;9.05;;;2.13;;
24373;SDS011;12498;50.880;12.096;2022-08-11T12:35:14;9.30;;;2.40;;
24373;SDS011;12498;50.880;12.096;2022-08-11T12:37:47;10.25;;;2.80;;
24373;SDS011;12498;50.880;12.096;2022-08-11T12:40:14;5.90;;;1.77;;
24373;SDS011;12498;50.880;12.096;2022-08-11T12:43:00;6.45;;;2.10;;
24373;SDS011;12498;50.880;12.096;2022-08-11T12:45:45;6.97;;;2.60;;
24373;SDS011;12498;50.880;12.096;2022-08-11T12:48:14;10.45;;;1.80;;
24373;SDS011;12498;50.880;12.096;2022-08-11T12:51:01;7.97;;;2.08;;
24373;SDS011;12498;50.880;12.096;2022-08-11T12:53:54;12.05;;;2.30;;
24373;SDS011;12498;50.880;12.096;2022-08-11T12:56:22;9.88;;;4.90;;
24373;SDS011;12498;50.880;12.096;2022-08-11T12:59:07;15.27;;;3.70;;
24373;SDS011;12498;50.880;12.096;2022-08-11T13:01:53;7.38;;;2.67;;
24373;SDS011;12498;50.880;12.096;2022-08-11T13:04:38;6.43;;;2.50;;
24373;SDS011;12498;50.880;12.096;2022-08-11T13:07:20;14.93;;;2.30;;
24373;SDS011;12498;50.880;12.096;2022-08-11T13:09:47;15.25;;;2.00;;
24373;SDS011;12498;50.880;12.096;2022-08-11T13:12:13;6.07;;;2.15;;
24373;SDS011;12498;50.880;12.096;2022-08-11T13:14:59;5.65;;;2.65;;
24373;SDS011;12498;50.880;12.096;2022-08-11T13:17:26;4.47;;;1.88;;
24373;SDS011;12498;50.880;12.096;2022-08-11T13:19:53;10.15;;;2.08;;
24373;SDS011;12498;50.880;12.096;2022-08-11T13:22:20;13.75;;;2.20;;
24373;SDS011;12498;50.880;12.096;2022-08-11T13:27:15;8.30;;;2.47;;
24373;SDS011;12498;50.880;12.096;2022-08-11T13:29:41;10.88;;;2.75;;
24373;SDS011;12498;50.880;12.096;2022-08-11T13:32:10;6.05;;;1.95;;
24373;SDS011;12498;50.880;12.096;2022-08-11T13:34:37;8.52;;;2.45;;
24373;SDS011;12498;50.880;12.096;2022-08-11T13:37:06;10.65;;;2.45;;
24373;SDS011;12498;50.880;12.096;2022-08-11T13:39:33;10.98;;;3.85;;
24373;SDS011;12498;50.880;12.096;2022-08-11T13:42:01;8.93;;;3.60;;
24373;SDS011;12498;50.880;12.096;2022-08-11T13:44:28;7.45;;;2.60;;
24373;SDS011;12498;50.880;12.096;2022-08-11T13:46:56;6.55;;;1.83;;
24373;SDS011;12498;50.880;12.096;2022-08-11T13:49:24;10.32;;;4.65;;
24373;SDS011;12498;50.880;12.096;2022-08-11T13:51:50;7.35;;;3.22;;
24373;SDS011;12498;50.880;12.096;2022-08-11T13:54:18;10.85;;;6.20;;
24373;SDS011;12498;50.880;12.096;2022-08-11T13:56:46;9.95;;;3.80;;
24373;SDS011;12498;50.880;12.096;2022-08-11T13:59:14;9.82;;;2.90;;
24373;SDS011;12498;50.880;12.096;2022-08-11T14:01:41;5.10;;;3.50;;
24373;SDS011;12498;50.880;12.096;2022-08-11T14:04:09;9.82;;;2.30;;
24373;SDS011;12498;50.880;12.096;2022-08-11T14:06:51;8.10;;;3.20;;
24373;SDS011;12498;50.880;12.096;2022-08-11T14:09:25;15.77;;;2.50;;
24373;SDS011;12498;50.880;12.096;2022-08-11T14:11:52;13.40;;;2.47;;
24373;SDS011;12498;50.880;12.096;2022-08-11T14:15:00;8.15;;;2.65;;
24373;SDS011;12498;50.880;12.096;2022-08-11T14:17:28;14.07;;;3.22;;
24373;SDS011;12498;50.880;12.096;2022-08-11T14:22:23;12.40;;;4.03;;
24373;SDS011;12498;50.880;12.096;2022-08-11T14:24:49;10.90;;;2.97;;
24373;SDS011;12498;50.880;12.096;2022-08-11T14:27:16;13.75;;;4.65;;
24373;SDS011;12498;50.880;12.096;2022-08-11T14:29:43;13.07;;;3.70;;
24373;SDS011;12498;50.880;12.096;2022-08-11T14:32:11;13.10;;;3.95;;
24373;SDS011;12498;50.880;12.096;2022-08-11T14:34:38;10.95;;;3.30;;
24373;SDS011;12498;50.880;12.096;2022-08-11T14:39:39;8.10;;;2.70;;
24373;SDS011;12498;50.880;12.096;2022-08-11T14:42:06;8.27;;;2.75;;
24373;SDS011;12498;50.880;12.096;2022-08-11T14:44:52;11.88;;;4.20;;
24373;SDS011;12498;50.880;12.096;2022-08-11T14:47:46;15.63;;;7.68;;
24373;SDS011;12498;50.880;12.096;2022-08-11T14:50:14;11.80;;;5.10;;
24373;SDS011;12498;50.880;12.096;2022-08-11T14:55:08;8.65;;;2.63;;
24373;SDS011;12498;50.880;12.096;2022-08-11T14:57:54;9.95;;;2.90;;
24373;SDS011;12498;50.880;12.096;2022-08-11T15:00:20;9.52;;;2.35;;
24373;SDS011;12498;50.880;12.096;2022-08-11T15:02:47;8.32;;;2.33;;
24373;SDS011;12498;50.880;12.096;2022-08-11T15:05:34;13.38;;;3.47;;
24373;SDS011;12498;50.880;12.096;2022-08-11T15:08:01;18.67;;;10.63;;
24373;SDS011;12498;50.880;12.096;2022-08-11T15:10:28;10.32;;;4.15;;
24373;SDS011;12498;50.880;12.096;2022-08-11T15:12:55;12.10;;;3.85;;
24373;SDS011;12498;50.880;12.096;2022-08-11T15:15:21;7.45;;;3.85;;
24373;SDS011;12498;50.880;12.096;2022-08-11T15:18:06;9.93;;;5.53;;
24373;SDS011;12498;50.880;12.096;2022-08-11T15:23:19;10.32;;;2.95;;
24373;SDS011;12498;50.880;12.096;2022-08-11T15:26:05;11.13;;;3.60;;
24373;SDS011;12498;50.880;12.096;2022-08-11T15:28:33;7.97;;;2.85;;
24373;SDS011;12498;50.880;12.096;2022-08-11T15:31:20;8.75;;;3.00;;
24373;SDS011;12498;50.880;12.096;2022-08-11T15:34:06;7.57;;;2.20;;
24373;SDS011;12498;50.880;12.096;2022-08-11T15:36:54;12.80;;;2.60;;
24373;SDS011;12498;50.880;12.096;2022-08-11T15:39:48;7.82;;;2.40;;
24373;SDS011;12498;50.880;12.096;2022-08-11T15:42:33;9.13;;;2.10;;
24373;SDS011;12498;50.880;12.096;2022-08-11T15:45:23;11.77;;;3.70;;
24373;SDS011;12498;50.880;12.096;2022-08-11T15:48:09;11.32;;;3.95;;
24373;SDS011;12498;50.880;12.096;2022-08-11T15:50:38;9.48;;;2.58;;
24373;SDS011;12498;50.880;12.096;2022-08-11T15:53:08;6.18;;;2.45;;
24373;SDS011;12498;50.880;12.096;2022-08-11T15:55:35;5.28;;;2.80;;
24373;SDS011;12498;50.880;12.096;2022-08-11T15:58:03;12.05;;;4.18;;
24373;SDS011;12498;50.880;12.096;2022-08-11T16:00:49;6.40;;;2.47;;
24373;SDS011;12498;50.880;12.096;2022-08-11T16:04:08;7.80;;;2.50;;
24373;SDS011;12498;50.880;12.096;2022-08-11T16:06:36;8.65;;;2.75;;
24373;SDS011;12498;50.880;12.096;2022-08-11T16:09:04;11.52;;;2.72;;
24373;SDS011;12498;50.880;12.096;2022-08-11T16:11:33;9.32;;;2.35;;
24373;SDS011;12498;50.880;12.096;2022-08-11T16:14:01;10.88;;;2.30;;
24373;SDS011;12498;50.880;12.096;2022-08-11T16:16:46;8.35;;;2.35;;
24373;SDS011;12498;50.880;12.096;2022-08-11T16:19:14;8.52;;;2.10;;
24373;SDS011;12498;50.880;12.096;2022-08-11T16:21:41;11.65;;;2.58;;
24373;SDS011;12498;50.880;12.096;2022-08-11T16:24:09;11.73;;;2.55;;
24373;SDS011;12498;50.880;12.096;2022-08-11T16:26:38;6.57;;;2.20;;
24373;SDS011;12498;50.880;12.096;2022-08-11T16:29:05;8.23;;;2.10;;
24373;SDS011;12498;50.880;12.096;2022-08-11T16:31:32;12.00;;;2.38;;
24373;SDS011;12498;50.880;12.096;2022-08-11T16:34:00;10.27;;;2.83;;
24373;SDS011;12498;50.880;12.096;2022-08-11T16:36:27;12.38;;;3.00;;
24373;SDS011;12498;50.880;12.096;2022-08-11T16:39:12;7.85;;;2.22;;
24373;SDS011;12498;50.880;12.096;2022-08-11T16:41:42;14.52;;;2.70;;
24373;SDS011;12498;50.880;12.096;2022-08-11T16:44:28;9.48;;;2.70;;
24373;SDS011;12498;50.880;12.096;2022-08-11T16:47:14;10.25;;;2.90;;
24373;SDS011;12498;50.880;12.096;2022-08-11T16:49:51;5.97;;;2.15;;
24373;SDS011;12498;50.880;12.096;2022-08-11T16:52:18;6.95;;;2.08;;
24373;SDS011;12498;50.880;12.096;2022-08-11T16:54:50;8.52;;;2.40;;
24373;SDS011;12498;50.880;12.096;2022-08-11T16:57:17;9.57;;;3.50;;
24373;SDS011;12498;50.880;12.096;2022-08-11T17:00:05;11.02;;;4.35;;
24373;SDS011;12498;50.880;12.096;2022-08-11T17:02:34;11.90;;;3.90;;
24373;SDS011;12498;50.880;12.096;2022-08-11T17:05:21;8.52;;;2.88;;
24373;SDS011;12498;50.880;12.096;2022-08-11T17:08:07;13.50;;;4.85;;
24373;SDS011;12498;50.880;12.096;2022-08-11T17:11:11;9.70;;;5.53;;
24373;SDS011;12498;50.880;12.096;2022-08-11T17:14:00;11.98;;;3.10;;
24373;SDS011;12498;50.880;12.096;2022-08-11T17:16:31;11.00;;;2.70;;
24373;SDS011;12498;50.880;12.096;2022-08-11T17:21:25;7.00;;;3.20;;
24373;SDS011;12498;50.880;12.096;2022-08-11T17:24:00;13.25;;;6.35;;
24373;SDS011;12498;50.880;12.096;2022-08-11T17:29:13;8.45;;;3.10;;
24373;SDS011;12498;50.880;12.096;2022-08-11T17:31:40;6.43;;;3.00;;
24373;SDS011;12498;50.880;12.096;2022-08-11T17:34:24;10.00;;;4.43;;
24373;SDS011;12498;50.880;12.096;2022-08-11T17:37:10;4.85;;;2.60;;
24373;SDS011;12498;50.880;12.096;2022-08-11T17:39:36;11.05;;;2.80;;
24373;SDS011;12498;50.880;12.096;2022-08-11T17:42:03;11.18;;;2.78;;
24373;SDS011;12498;50.880;12.096;2022-08-11T17:44:48;8.57;;;2.60;;
24373;SDS011;12498;50.880;12.096;2022-08-11T17:47:33;11.95;;;2.40;;
24373;SDS011;12498;50.880;12.096;2022-08-11T17:50:18;8.52;;;2.90;;
24373;SDS011;12498;50.880;12.096;2022-08-11T17:52:45;9.20;;;2.88;;
24373;SDS011;12498;50.880;12.096;2022-08-11T17:55:30;7.05;;;2.95;;
24373;SDS011;12498;50.880;12.096;2022-08-11T17:58:16;11.13;;;3.65;;
24373;SDS011;12498;50.880;12.096;2022-08-11T18:01:01;12.88;;;4.85;;
24373;SDS011;12498;50.880;12.096;2022-08-11T18:03:28;8.40;;;3.30;;
24373;SDS011;12498;50.880;12.096;2022-08-11T18:05:56;12.80;;;3.60;;
24373;SDS011;12498;50.880;12.096;2022-08-11T18:08:22;13.20;;;7.38;;
24373;SDS011;12498;50.880;12.096;2022-08-11T18:11:07;9.43;;;5.63;;
24373;SDS011;12498;50.880;12.096;2022-08-11T18:13:53;6.35;;;3.17;;
24373;SDS011;12498;50.880;12.096;2022-08-11T18:16:40;12.18;;;4.97;;
24373;SDS011;12498;50.880;12.096;2022-08-11T18:19:24;7.70;;;3.45;;
24373;SDS011;12498;50.880;12.096;2022-08-11T18:22:15;9.73;;;4.15;;
24373;SDS011;12498;50.880;12.096;2022-08-11T18:25:02;14.45;;;3.70;;
24373;SDS011;12498;50.880;12.096;2022-08-11T18:27:49;22.38;;;3.72;;
24373;SDS011;12498;50.880;12.096;2022-08-11T18:30:36;20.52;;;5.70;;
24373;SDS011;12498;50.880;12.096;2022-08-11T18:33:23;22.65;;;4.47;;
24373;SDS011;12498;50.880;12.096;2022-08-11T18:36:10;16.47;;;3.50;;
24373;SDS011;12498;50.880;12.096;2022-08-11T18:38:56;11.93;;;3.60;;
24373;SDS011;12498;50.880;12.096;2022-08-11T18:41:42;11.82;;;5.07;;
24373;SDS011;12498;50.880;12.096;2022-08-11T18:44:29;8.48;;;4.47;;
24373;SDS011;12498;50.880;12.096;2022-08-11T18:47:15;8.15;;;4.60;;
24373;SDS011;12498;50.880;12.096;2022-08-11T18:50:02;7.20;;;3.38;;
24373;SDS011;12498;50.880;12.096;2022-08-11T18:52:47;7.80;;;3.47;;
24373;SDS011;12498;50.880;12.096;2022-08-11T18:55:33;9.07;;;3.67;;
24373;SDS011;12498;50.880;12.096;2022-08-11T18:58:20;8.05;;;3.22;;
24373;SDS011;12498;50.880;12.096;2022-08-11T19:01:06;10.17;;;2.70;;
24373;SDS011;12498;50.880;12.096;2022-08-11T19:03:52;9.13;;;2.80;;
24373;SDS011;12498;50.880;12.096;2022-08-11T19:06:38;9.93;;;3.45;;
24373;SDS011;12498;50.880;12.096;2022-08-11T19:09:23;6.25;;;3.30;;
24373;SDS011;12498;50.880;12.096;2022-08-11T19:12:12;13.32;;;4.28;;
24373;SDS011;12498;50.880;12.096;2022-08-11T19:14:57;12.73;;;5.47;;
24373;SDS011;12498;50.880;12.096;2022-08-11T19:17:44;11.93;;;4.28;;
24373;SDS011;12498;50.880;12.096;2022-08-11T19:20:29;18.75;;;8.80;;
24373;SDS011;12498;50.880;12.096;2022-08-11T19:23:15;9.95;;;4.80;;